Terminal Aerodrome Forecast
Issued by NWS Melbourne, FL

Home | Current Version | Previous Version | Text Only | Print | Product List | Glossary On
Versions: 1 2 3 4 5 6 7 8 9 10 11 12 13 14 15 16 17 18 19 20 21 22 23 24 25
000
FTUS42 KMLB 210500
TAFDAB
TAF
KDAB 210531Z 2106/2206 33006KT P6SM BKN015 OVC025
      TEMPO 2110/2113 BKN008 OVC015
     FM211600 01013KT P6SM SCT025 BKN035
     FM212300 02006KT P6SM FEW025 SCT250=

USA.gov is the U.S. government's official web portal to all federal, state and local government web resources and services.